sensor_id;sensor_type;location;lat;lon;timestamp;temperature;humidity
64939;DHT22;51453;47.738;7.420;2022-11-03T00:00:06;8.50;99.90
64939;DHT22;51453;47.738;7.420;2022-11-03T00:02:32;8.50;99.90
64939;DHT22;51453;47.738;7.420;2022-11-03T00:04:58;8.60;99.90
64939;DHT22;51453;47.738;7.420;2022-11-03T00:07:43;8.60;99.90
64939;DHT22;51453;47.738;7.420;2022-11-03T00:10:09;8.60;99.90
64939;DHT22;51453;47.738;7.420;2022-11-03T00:12:35;8.60;99.90
64939;DHT22;51453;47.738;7.420;2022-11-03T00:15:00;8.70;99.90
64939;DHT22;51453;47.738;7.420;2022-11-03T00:17:26;8.60;99.90
64939;DHT22;51453;47.738;7.420;2022-11-03T00:19:51;8.60;99.90
64939;DHT22;51453;47.738;7.420;2022-11-03T00:22:17;8.60;99.90
64939;DHT22;51453;47.738;7.420;2022-11-03T00:24:43;8.70;99.90
64939;DHT22;51453;47.738;7.420;2022-11-03T00:27:08;8.70;99.90
64939;DHT22;51453;47.738;7.420;2022-11-03T00:29:34;8.80;99.90
64939;DHT22;51453;47.738;7.420;2022-11-03T00:31:59;8.80;99.90
64939;DHT22;51453;47.738;7.420;2022-11-03T00:34:25;8.80;99.90
64939;DHT22;51453;47.738;7.420;2022-11-03T00:36:51;8.80;99.90
64939;DHT22;51453;47.738;7.420;2022-11-03T00:39:16;8.80;99.90
64939;DHT22;51453;47.738;7.420;2022-11-03T00:41:42;8.80;99.90
64939;DHT22;51453;47.738;7.420;2022-11-03T00:44:08;8.80;99.90
64939;DHT22;51453;47.738;7.420;2022-11-03T00:46:34;8.90;99.90
64939;DHT22;51453;47.738;7.420;2022-11-03T00:49:00;8.90;99.90
64939;DHT22;51453;47.738;7.420;2022-11-03T00:51:28;8.80;99.90
64939;DHT22;51453;47.738;7.420;2022-11-03T00:54:00;8.80;99.90
64939;DHT22;51453;47.738;7.420;2022-11-03T00:56:31;8.80;99.90
64939;DHT22;51453;47.738;7.420;2022-11-03T00:58:58;8.70;99.90
64939;DHT22;51453;47.738;7.420;2022-11-03T01:01:27;8.80;99.90
64939;DHT22;51453;47.738;7.420;2022-11-03T01:03:55;8.70;99.90
64939;DHT22;51453;47.738;7.420;2022-11-03T01:06:42;8.70;99.90
64939;DHT22;51453;47.738;7.420;2022-11-03T01:12:16;8.70;99.90
64939;DHT22;51453;47.738;7.420;2022-11-03T01:14:50;8.70;99.90
64939;DHT22;51453;47.738;7.420;2022-11-03T01:17:22;8.70;99.90
64939;DHT22;51453;47.738;7.420;2022-11-03T01:19:49;8.70;99.90
64939;DHT22;51453;47.738;7.420;2022-11-03T01:22:15;8.70;99.90
64939;DHT22;51453;47.738;7.420;2022-11-03T01:24:41;8.70;99.90
64939;DHT22;51453;47.738;7.420;2022-11-03T01:27:13;8.70;99.90
64939;DHT22;51453;47.738;7.420;2022-11-03T01:29:39;8.70;99.90
64939;DHT22;51453;47.738;7.420;2022-11-03T01:32:06;8.70;99.90
64939;DHT22;51453;47.738;7.420;2022-11-03T01:34:32;8.70;99.90
64939;DHT22;51453;47.738;7.420;2022-11-03T01:36:58;8.70;99.90
64939;DHT22;51453;47.738;7.420;2022-11-03T01:39:24;8.70;99.90
64939;DHT22;51453;47.738;7.420;2022-11-03T01:41:51;8.70;99.90
64939;DHT22;51453;47.738;7.420;2022-11-03T01:46:53;8.60;99.90
64939;DHT22;51453;47.738;7.420;2022-11-03T01:52:26;8.60;99.90
64939;DHT22;51453;47.738;7.420;2022-11-03T01:55:08;8.60;99.90
64939;DHT22;51453;47.738;7.420;2022-11-03T01:58:05;8.50;99.90
64939;DHT22;51453;47.738;7.420;2022-11-03T02:00:32;8.50;99.90
64939;DHT22;51453;47.738;7.420;2022-11-03T02:02:59;8.50;99.90
64939;DHT22;51453;47.738;7.420;2022-11-03T02:05:25;8.40;99.90
64939;DHT22;51453;47.738;7.420;2022-11-03T02:07:53;8.40;99.90
64939;DHT22;51453;47.738;7.420;2022-11-03T02:10:22;8.40;99.90
64939;DHT22;51453;47.738;7.420;2022-11-03T02:12:48;8.40;99.90
64939;DHT22;51453;47.738;7.420;2022-11-03T02:15:15;8.30;99.90
64939;DHT22;51453;47.738;7.420;2022-11-03T02:17:44;8.30;99.90
64939;DHT22;51453;47.738;7.420;2022-11-03T02:20:19;8.30;99.90
64939;DHT22;51453;47.738;7.420;2022-11-03T02:25:44;8.30;99.90
64939;DHT22;51453;47.738;7.420;2022-11-03T02:28:12;8.30;99.90
64939;DHT22;51453;47.738;7.420;2022-11-03T02:36:16;8.20;99.90
64939;DHT22;51453;47.738;7.420;2022-11-03T02:38:48;8.30;99.90
64939;DHT22;51453;47.738;7.420;2022-11-03T02:41:17;8.20;99.90
64939;DHT22;51453;47.738;7.420;2022-11-03T02:43:44;8.10;99.90
64939;DHT22;51453;47.738;7.420;2022-11-03T02:46:14;8.20;99.90
64939;DHT22;51453;47.738;7.420;2022-11-03T02:48:40;8.20;99.90
64939;DHT22;51453;47.738;7.420;2022-11-03T02:51:06;8.10;99.90
64939;DHT22;51453;47.738;7.420;2022-11-03T02:53:36;8.10;99.90
64939;DHT22;51453;47.738;7.420;2022-11-03T02:56:23;8.10;99.90
64939;DHT22;51453;47.738;7.420;2022-11-03T02:58:57;8.10;99.90
64939;DHT22;51453;47.738;7.420;2022-11-03T03:01:37;8.10;99.90
64939;DHT22;51453;47.738;7.420;2022-11-03T03:04:19;8.10;99.90
64939;DHT22;51453;47.738;7.420;2022-11-03T03:06:53;8.10;99.90
64939;DHT22;51453;47.738;7.420;2022-11-03T03:09:25;8.00;99.90
64939;DHT22;51453;47.738;7.420;2022-11-03T03:11:54;8.00;99.90
64939;DHT22;51453;47.738;7.420;2022-11-03T03:14:28;8.00;99.90
64939;DHT22;51453;47.738;7.420;2022-11-03T03:17:00;8.00;99.90
64939;DHT22;51453;47.738;7.420;2022-11-03T03:27:31;8.10;99.90
64939;DHT22;51453;47.738;7.420;2022-11-03T03:30:03;8.00;99.90
64939;DHT22;51453;47.738;7.420;2022-11-03T03:32:30;8.00;99.90
64939;DHT22;51453;47.738;7.420;2022-11-03T03:34:59;8.00;99.90
64939;DHT22;51453;47.738;7.420;2022-11-03T03:37:27;8.00;99.90
64939;DHT22;51453;47.738;7.420;2022-11-03T03:39:56;8.10;99.90
64939;DHT22;51453;47.738;7.420;2022-11-03T03:42:26;8.10;99.90
64939;DHT22;51453;47.738;7.420;2022-11-03T03:44:53;8.10;99.90
64939;DHT22;51453;47.738;7.420;2022-11-03T03:47:28;8.20;99.90
64939;DHT22;51453;47.738;7.420;2022-11-03T03:49:54;8.20;99.90
64939;DHT22;51453;47.738;7.420;2022-11-03T03:52:20;8.20;99.90
64939;DHT22;51453;47.738;7.420;2022-11-03T03:54:46;8.20;99.90
64939;DHT22;51453;47.738;7.420;2022-11-03T03:57:14;8.20;99.90
64939;DHT22;51453;47.738;7.420;2022-11-03T03:59:42;8.30;99.90
64939;DHT22;51453;47.738;7.420;2022-11-03T04:02:08;8.30;99.90
64939;DHT22;51453;47.738;7.420;2022-11-03T04:04:33;8.30;99.90
64939;DHT22;51453;47.738;7.420;2022-11-03T04:06:59;8.20;99.90
64939;DHT22;51453;47.738;7.420;2022-11-03T04:09:43;8.20;99.90
64939;DHT22;51453;47.738;7.420;2022-11-03T04:12:09;8.20;99.90
64939;DHT22;51453;47.738;7.420;2022-11-03T04:14:53;8.20;99.90
64939;DHT22;51453;47.738;7.420;2022-11-03T04:17:42;8.30;99.90
64939;DHT22;51453;47.738;7.420;2022-11-03T04:20:27;8.20;99.90
64939;DHT22;51453;47.738;7.420;2022-11-03T04:23:11;8.20;99.90
64939;DHT22;51453;47.738;7.420;2022-11-03T04:25:37;8.20;99.90
64939;DHT22;51453;47.738;7.420;2022-11-03T04:28:13;8.10;99.90
64939;DHT22;51453;47.738;7.420;2022-11-03T04:30:39;8.10;99.90
64939;DHT22;51453;47.738;7.420;2022-11-03T04:33:16;8.10;99.90
64939;DHT22;51453;47.738;7.420;2022-11-03T04:35:43;8.10;99.90
64939;DHT22;51453;47.738;7.420;2022-11-03T04:38:20;8.10;99.90
64939;DHT22;51453;47.738;7.420;2022-11-03T04:40:52;8.10;99.90
64939;DHT22;51453;47.738;7.420;2022-11-03T04:43:20;8.10;99.90
64939;DHT22;51453;47.738;7.420;2022-11-03T04:45:48;8.10;99.90
64939;DHT22;51453;47.738;7.420;2022-11-03T04:48:18;8.10;99.90
64939;DHT22;51453;47.738;7.420;2022-11-03T04:50:46;8.20;99.90
64939;DHT22;51453;47.738;7.420;2022-11-03T04:53:17;8.10;99.90
64939;DHT22;51453;47.738;7.420;2022-11-03T04:55:45;8.10;99.90
64939;DHT22;51453;47.738;7.420;2022-11-03T04:58:22;8.10;99.90
64939;DHT22;51453;47.738;7.420;2022-11-03T05:00:50;8.20;99.90
64939;DHT22;51453;47.738;7.420;2022-11-03T05:03:21;8.20;99.90
64939;DHT22;51453;47.738;7.420;2022-11-03T05:05:47;8.30;99.90
64939;DHT22;51453;47.738;7.420;2022-11-03T05:08:16;8.30;99.90
64939;DHT22;51453;47.738;7.420;2022-11-03T05:10:42;8.40;99.90
64939;DHT22;51453;47.738;7.420;2022-11-03T05:13:23;8.40;99.90
64939;DHT22;51453;47.738;7.420;2022-11-03T05:15:51;8.30;99.90
64939;DHT22;51453;47.738;7.420;2022-11-03T05:18:31;8.20;99.90
64939;DHT22;51453;47.738;7.420;2022-11-03T05:21:10;8.20;99.90
64939;DHT22;51453;47.738;7.420;2022-11-03T05:23:48;8.20;99.90
64939;DHT22;51453;47.738;7.420;2022-11-03T05:26:34;8.10;99.90
64939;DHT22;51453;47.738;7.420;2022-11-03T05:29:18;8.10;99.90
64939;DHT22;51453;47.738;7.420;2022-11-03T05:31:46;8.10;99.90
64939;DHT22;51453;47.738;7.420;2022-11-03T05:36:41;8.10;99.90
64939;DHT22;51453;47.738;7.420;2022-11-03T05:39:30;8.10;99.90
64939;DHT22;51453;47.738;7.420;2022-11-03T05:41:57;8.10;99.90
64939;DHT22;51453;47.738;7.420;2022-11-03T05:46:52;8.10;99.90
64939;DHT22;51453;47.738;7.420;2022-11-03T05:49:18;8.10;99.90
64939;DHT22;51453;47.738;7.420;2022-11-03T05:51:44;8.10;99.90
64939;DHT22;51453;47.738;7.420;2022-11-03T05:54:26;8.00;99.90
64939;DHT22;51453;47.738;7.420;2022-11-03T05:56:55;8.10;99.90
64939;DHT22;51453;47.738;7.420;2022-11-03T05:59:26;8.00;99.90
64939;DHT22;51453;47.738;7.420;2022-11-03T06:01:53;8.00;99.90
64939;DHT22;51453;47.738;7.420;2022-11-03T06:04:24;8.00;99.90
64939;DHT22;51453;47.738;7.420;2022-11-03T06:06:58;8.10;99.90
64939;DHT22;51453;47.738;7.420;2022-11-03T06:09:26;8.00;99.90
64939;DHT22;51453;47.738;7.420;2022-11-03T06:11:53;8.00;99.90
64939;DHT22;51453;47.738;7.420;2022-11-03T06:14:22;8.10;99.90
64939;DHT22;51453;47.738;7.420;2022-11-03T06:17:01;8.10;99.90
64939;DHT22;51453;47.738;7.420;2022-11-03T06:19:46;8.10;99.90
64939;DHT22;51453;47.738;7.420;2022-11-03T06:24:40;8.10;99.90
64939;DHT22;51453;47.738;7.420;2022-11-03T06:27:19;8.10;99.90
64939;DHT22;51453;47.738;7.420;2022-11-03T06:29:52;8.10;99.90
64939;DHT22;51453;47.738;7.420;2022-11-03T06:32:20;8.10;99.90
64939;DHT22;51453;47.738;7.420;2022-11-03T06:34:51;8.10;99.90
64939;DHT22;51453;47.738;7.420;2022-11-03T06:37:24;8.20;99.90
64939;DHT22;51453;47.738;7.420;2022-11-03T06:39:55;8.20;99.90
64939;DHT22;51453;47.738;7.420;2022-11-03T06:42:25;8.20;99.90
64939;DHT22;51453;47.738;7.420;2022-11-03T06:44:52;8.30;99.90
64939;DHT22;51453;47.738;7.420;2022-11-03T06:47:26;8.30;99.90
64939;DHT22;51453;47.738;7.420;2022-11-03T06:49:57;8.30;99.90
64939;DHT22;51453;47.738;7.420;2022-11-03T06:52:30;8.40;99.90
64939;DHT22;51453;47.738;7.420;2022-11-03T06:57:39;8.50;99.90
64939;DHT22;51453;47.738;7.420;2022-11-03T07:00:27;8.50;99.90
64939;DHT22;51453;47.738;7.420;2022-11-03T07:05:29;8.70;99.90
64939;DHT22;51453;47.738;7.420;2022-11-03T07:08:10;8.80;99.90
64939;DHT22;51453;47.738;7.420;2022-11-03T07:10:37;8.80;99.90
64939;DHT22;51453;47.738;7.420;2022-11-03T07:13:12;8.80;99.90
64939;DHT22;51453;47.738;7.420;2022-11-03T07:15:39;8.90;99.90
64939;DHT22;51453;47.738;7.420;2022-11-03T07:18:28;8.90;99.90
64939;DHT22;51453;47.738;7.420;2022-11-03T07:20:56;9.00;99.90
64939;DHT22;51453;47.738;7.420;2022-11-03T07:23:25;9.10;99.90
64939;DHT22;51453;47.738;7.420;2022-11-03T07:25:53;9.10;99.90
64939;DHT22;51453;47.738;7.420;2022-11-03T07:28:34;9.20;99.90
64939;DHT22;51453;47.738;7.420;2022-11-03T07:31:11;9.30;99.90
64939;DHT22;51453;47.738;7.420;2022-11-03T07:33:38;9.30;99.90
64939;DHT22;51453;47.738;7.420;2022-11-03T07:36:05;9.40;99.90
64939;DHT22;51453;47.738;7.420;2022-11-03T07:38:32;9.30;99.90
64939;DHT22;51453;47.738;7.420;2022-11-03T07:40:58;9.40;99.90
64939;DHT22;51453;47.738;7.420;2022-11-03T07:43:29;9.40;99.90
64939;DHT22;51453;47.738;7.420;2022-11-03T07:45:58;9.40;99.90
64939;DHT22;51453;47.738;7.420;2022-11-03T07:48:40;9.50;99.90
64939;DHT22;51453;47.738;7.420;2022-11-03T07:51:25;9.60;99.90
64939;DHT22;51453;47.738;7.420;2022-11-03T07:54:00;9.60;99.90
64939;DHT22;51453;47.738;7.420;2022-11-03T07:56:38;9.70;99.90
64939;DHT22;51453;47.738;7.420;2022-11-03T08:01:37;9.70;99.90
64939;DHT22;51453;47.738;7.420;2022-11-03T08:04:11;9.70;99.90
64939;DHT22;51453;47.738;7.420;2022-11-03T08:06:37;9.80;99.90
64939;DHT22;51453;47.738;7.420;2022-11-03T08:09:03;9.90;99.90
64939;DHT22;51453;47.738;7.420;2022-11-03T08:11:29;10.10;99.90
64939;DHT22;51453;47.738;7.420;2022-11-03T08:13:55;10.10;99.90
64939;DHT22;51453;47.738;7.420;2022-11-03T08:16:21;10.30;99.90
64939;DHT22;51453;47.738;7.420;2022-11-03T08:18:46;10.40;99.90
64939;DHT22;51453;47.738;7.420;2022-11-03T08:21:12;10.40;99.90
64939;DHT22;51453;47.738;7.420;2022-11-03T08:23:38;10.50;99.90
64939;DHT22;51453;47.738;7.420;2022-11-03T08:26:04;10.60;99.90
64939;DHT22;51453;47.738;7.420;2022-11-03T08:28:31;10.70;99.90
64939;DHT22;51453;47.738;7.420;2022-11-03T08:30:57;10.90;99.90
64939;DHT22;51453;47.738;7.420;2022-11-03T08:33:29;11.00;99.90
64939;DHT22;51453;47.738;7.420;2022-11-03T08:35:54;11.10;99.90
64939;DHT22;51453;47.738;7.420;2022-11-03T08:38:20;11.20;99.90
64939;DHT22;51453;47.738;7.420;2022-11-03T08:40:45;11.20;99.90
64939;DHT22;51453;47.738;7.420;2022-11-03T08:43:11;11.30;99.90
64939;DHT22;51453;47.738;7.420;2022-11-03T08:45:37;11.40;99.90
64939;DHT22;51453;47.738;7.420;2022-11-03T08:48:02;11.40;99.90
64939;DHT22;51453;47.738;7.420;2022-11-03T08:50:28;11.40;99.90
64939;DHT22;51453;47.738;7.420;2022-11-03T08:52:54;11.60;99.90
64939;DHT22;51453;47.738;7.420;2022-11-03T08:55:20;11.60;99.90
64939;DHT22;51453;47.738;7.420;2022-11-03T08:57:46;11.80;99.90
64939;DHT22;51453;47.738;7.420;2022-11-03T09:00:12;11.90;99.90
64939;DHT22;51453;47.738;7.420;2022-11-03T09:02:38;12.00;99.90
64939;DHT22;51453;47.738;7.420;2022-11-03T09:05:04;12.20;99.90
64939;DHT22;51453;47.738;7.420;2022-11-03T09:07:30;12.20;99.90
64939;DHT22;51453;47.738;7.420;2022-11-03T09:09:56;12.30;99.90
64939;DHT22;51453;47.738;7.420;2022-11-03T09:12:22;12.30;99.90
64939;DHT22;51453;47.738;7.420;2022-11-03T09:14:47;12.40;99.90
64939;DHT22;51453;47.738;7.420;2022-11-03T09:17:13;12.40;99.90
64939;DHT22;51453;47.738;7.420;2022-11-03T09:19:39;12.40;99.90
64939;DHT22;51453;47.738;7.420;2022-11-03T09:22:04;12.50;99.90
64939;DHT22;51453;47.738;7.420;2022-11-03T09:24:30;12.50;99.90
64939;DHT22;51453;47.738;7.420;2022-11-03T09:26:56;12.50;99.90
64939;DHT22;51453;47.738;7.420;2022-11-03T09:29:21;12.50;99.90
64939;DHT22;51453;47.738;7.420;2022-11-03T09:31:47;12.50;99.90
64939;DHT22;51453;47.738;7.420;2022-11-03T09:34:13;12.60;99.90
64939;DHT22;51453;47.738;7.420;2022-11-03T09:36:39;12.60;99.90
64939;DHT22;51453;47.738;7.420;2022-11-03T09:39:05;12.70;99.90
64939;DHT22;51453;47.738;7.420;2022-11-03T09:41:31;12.80;99.90
64939;DHT22;51453;47.738;7.420;2022-11-03T09:43:57;12.90;99.90
64939;DHT22;51453;47.738;7.420;2022-11-03T09:46:24;13.00;99.90
64939;DHT22;51453;47.738;7.420;2022-11-03T09:48:51;13.10;99.90
64939;DHT22;51453;47.738;7.420;2022-11-03T09:51:19;13.20;99.90
64939;DHT22;51453;47.738;7.420;2022-11-03T09:53:46;13.30;99.90
64939;DHT22;51453;47.738;7.420;2022-11-03T09:56:13;13.30;99.90
64939;DHT22;51453;47.738;7.420;2022-11-03T09:58:40;13.40;99.90
64939;DHT22;51453;47.738;7.420;2022-11-03T10:01:09;13.50;99.90
64939;DHT22;51453;47.738;7.420;2022-11-03T10:03:35;13.60;99.90
64939;DHT22;51453;47.738;7.420;2022-11-03T10:06:00;13.50;99.90
64939;DHT22;51453;47.738;7.420;2022-11-03T10:08:29;13.70;99.90
64939;DHT22;51453;47.738;7.420;2022-11-03T10:10:55;13.60;99.90
64939;DHT22;51453;47.738;7.420;2022-11-03T10:15:52;13.70;99.90
64939;DHT22;51453;47.738;7.420;2022-11-03T10:18:17;13.70;99.90
64939;DHT22;51453;47.738;7.420;2022-11-03T10:20:44;13.80;99.90
64939;DHT22;51453;47.738;7.420;2022-11-03T10:23:09;13.90;99.90
64939;DHT22;51453;47.738;7.420;2022-11-03T10:25:36;13.90;99.90
64939;DHT22;51453;47.738;7.420;2022-11-03T10:28:20;13.90;99.90
64939;DHT22;51453;47.738;7.420;2022-11-03T10:31:07;14.00;99.90
64939;DHT22;51453;47.738;7.420;2022-11-03T10:33:55;14.00;99.90
64939;DHT22;51453;47.738;7.420;2022-11-03T10:36:28;14.00;99.90
64939;DHT22;51453;47.738;7.420;2022-11-03T10:38:55;14.00;99.90
64939;DHT22;51453;47.738;7.420;2022-11-03T10:41:24;14.00;99.90
64939;DHT22;51453;47.738;7.420;2022-11-03T10:46:27;14.00;99.90
64939;DHT22;51453;47.738;7.420;2022-11-03T10:51:35;14.00;99.90
64939;DHT22;51453;47.738;7.420;2022-11-03T10:54:05;14.00;99.90
64939;DHT22;51453;47.738;7.420;2022-11-03T10:56:31;14.00;99.90
64939;DHT22;51453;47.738;7.420;2022-11-03T10:58:58;14.10;99.90
64939;DHT22;51453;47.738;7.420;2022-11-03T11:01:24;14.20;99.90
64939;DHT22;51453;47.738;7.420;2022-11-03T11:03:50;14.20;99.90
64939;DHT22;51453;47.738;7.420;2022-11-03T11:06:20;14.30;99.90
64939;DHT22;51453;47.738;7.420;2022-11-03T11:08:48;14.30;99.90
64939;DHT22;51453;47.738;7.420;2022-11-03T11:11:15;14.30;99.90
64939;DHT22;51453;47.738;7.420;2022-11-03T11:13:41;14.30;99.90
64939;DHT22;51453;47.738;7.420;2022-11-03T11:16:46;14.40;99.90
64939;DHT22;51453;47.738;7.420;2022-11-03T11:19:12;14.50;99.90
64939;DHT22;51453;47.738;7.420;2022-11-03T11:24:05;14.50;99.90
64939;DHT22;51453;47.738;7.420;2022-11-03T11:26:33;14.50;99.90
64939;DHT22;51453;47.738;7.420;2022-11-03T11:31:38;14.50;99.90
64939;DHT22;51453;47.738;7.420;2022-11-03T11:50:15;14.40;99.90
64939;DHT22;51453;47.738;7.420;2022-11-03T11:55:28;14.50;99.90
64939;DHT22;51453;47.738;7.420;2022-11-03T11:57:54;14.50;99.90
64939;DHT22;51453;47.738;7.420;2022-11-03T12:00:22;14.60;99.90
64939;DHT22;51453;47.738;7.420;2022-11-03T12:02:50;14.60;99.90
64939;DHT22;51453;47.738;7.420;2022-11-03T12:05:31;14.50;99.90
64939;DHT22;51453;47.738;7.420;2022-11-03T12:07:57;14.60;99.90
64939;DHT22;51453;47.738;7.420;2022-11-03T12:10:28;14.50;99.90
64939;DHT22;51453;47.738;7.420;2022-11-03T12:12:56;14.50;99.90
64939;DHT22;51453;47.738;7.420;2022-11-03T12:20:55;14.70;99.90
64939;DHT22;51453;47.738;7.420;2022-11-03T12:23:42;14.70;99.90
64939;DHT22;51453;47.738;7.420;2022-11-03T12:28:52;14.80;99.90
64939;DHT22;51453;47.738;7.420;2022-11-03T12:31:18;14.80;99.90
64939;DHT22;51453;47.738;7.420;2022-11-03T12:33:43;14.90;99.90
64939;DHT22;51453;47.738;7.420;2022-11-03T12:36:09;14.90;99.90
64939;DHT22;51453;47.738;7.420;2022-11-03T12:38:35;15.00;99.90
64939;DHT22;51453;47.738;7.420;2022-11-03T12:41:01;15.00;99.90
64939;DHT22;51453;47.738;7.420;2022-11-03T12:43:52;15.10;99.90
64939;DHT22;51453;47.738;7.420;2022-11-03T12:46:19;15.10;99.90
64939;DHT22;51453;47.738;7.420;2022-11-03T12:48:46;15.10;99.90
64939;DHT22;51453;47.738;7.420;2022-11-03T12:51:16;15.10;99.90
64939;DHT22;51453;47.738;7.420;2022-11-03T12:53:43;15.10;99.90
64939;DHT22;51453;47.738;7.420;2022-11-03T12:56:10;15.10;99.90
64939;DHT22;51453;47.738;7.420;2022-11-03T12:58:36;15.10;99.90
64939;DHT22;51453;47.738;7.420;2022-11-03T13:01:02;15.10;99.90
64939;DHT22;51453;47.738;7.420;2022-11-03T13:03:28;15.00;99.90
64939;DHT22;51453;47.738;7.420;2022-11-03T13:05:54;15.00;99.90
64939;DHT22;51453;47.738;7.420;2022-11-03T13:08:20;15.00;99.90
64939;DHT22;51453;47.738;7.420;2022-11-03T13:10:46;15.10;99.90
64939;DHT22;51453;47.738;7.420;2022-11-03T13:13:12;15.00;99.90
64939;DHT22;51453;47.738;7.420;2022-11-03T13:15:38;15.00;99.90
64939;DHT22;51453;47.738;7.420;2022-11-03T13:18:04;14.90;99.90
64939;DHT22;51453;47.738;7.420;2022-11-03T13:20:33;15.00;99.90
64939;DHT22;51453;47.738;7.420;2022-11-03T13:22:59;14.90;99.90
64939;DHT22;51453;47.738;7.420;2022-11-03T13:25:25;14.80;99.90
64939;DHT22;51453;47.738;7.420;2022-11-03T13:27:51;14.80;99.90
64939;DHT22;51453;47.738;7.420;2022-11-03T13:30:23;14.80;99.90
64939;DHT22;51453;47.738;7.420;2022-11-03T13:32:49;14.70;99.90
64939;DHT22;51453;47.738;7.420;2022-11-03T13:35:15;14.70;99.90
64939;DHT22;51453;47.738;7.420;2022-11-03T13:37:42;14.80;99.90
64939;DHT22;51453;47.738;7.420;2022-11-03T13:40:10;14.80;99.90
64939;DHT22;51453;47.738;7.420;2022-11-03T13:42:36;14.80;99.90
64939;DHT22;51453;47.738;7.420;2022-11-03T13:45:02;14.80;99.90
64939;DHT22;51453;47.738;7.420;2022-11-03T13:47:28;14.80;99.90
64939;DHT22;51453;47.738;7.420;2022-11-03T13:49:54;14.90;99.90
64939;DHT22;51453;47.738;7.420;2022-11-03T13:52:19;14.90;99.90
64939;DHT22;51453;47.738;7.420;2022-11-03T13:54:45;14.90;99.90
64939;DHT22;51453;47.738;7.420;2022-11-03T13:57:11;14.80;99.90
64939;DHT22;51453;47.738;7.420;2022-11-03T13:59:37;14.80;99.90
64939;DHT22;51453;47.738;7.420;2022-11-03T14:02:04;14.80;99.90
64939;DHT22;51453;47.738;7.420;2022-11-03T14:04:30;14.70;99.90
64939;DHT22;51453;47.738;7.420;2022-11-03T14:06:56;14.80;99.90
64939;DHT22;51453;47.738;7.420;2022-11-03T14:09:23;14.80;99.90
64939;DHT22;51453;47.738;7.420;2022-11-03T14:11:49;14.90;99.90
64939;DHT22;51453;47.738;7.420;2022-11-03T14:14:33;14.80;99.90
64939;DHT22;51453;47.738;7.420;2022-11-03T14:16:58;14.80;99.90
64939;DHT22;51453;47.738;7.420;2022-11-03T14:19:24;14.80;99.90
64939;DHT22;51453;47.738;7.420;2022-11-03T14:21:50;14.80;99.90
64939;DHT22;51453;47.738;7.420;2022-11-03T14:24:16;14.80;99.90
64939;DHT22;51453;47.738;7.420;2022-11-03T14:26:42;14.70;99.90
64939;DHT22;51453;47.738;7.420;2022-11-03T14:29:08;14.70;99.90
64939;DHT22;51453;47.738;7.420;2022-11-03T14:31:34;14.70;99.90
64939;DHT22;51453;47.738;7.420;2022-11-03T14:34:00;14.60;99.90
64939;DHT22;51453;47.738;7.420;2022-11-03T14:36:25;14.60;99.90
64939;DHT22;51453;47.738;7.420;2022-11-03T14:38:51;14.50;99.90
64939;DHT22;51453;47.738;7.420;2022-11-03T14:41:17;14.50;99.90
64939;DHT22;51453;47.738;7.420;2022-11-03T14:44:01;14.40;99.90
64939;DHT22;51453;47.738;7.420;2022-11-03T14:46:31;14.30;99.90
64939;DHT22;51453;47.738;7.420;2022-11-03T14:48:56;14.30;99.90
64939;DHT22;51453;47.738;7.420;2022-11-03T14:51:22;14.40;99.90
64939;DHT22;51453;47.738;7.420;2022-11-03T14:53:48;14.30;99.90
64939;DHT22;51453;47.738;7.420;2022-11-03T14:56:14;14.20;99.90
64939;DHT22;51453;47.738;7.420;2022-11-03T14:58:39;14.20;99.90
64939;DHT22;51453;47.738;7.420;2022-11-03T15:01:05;14.20;99.90
64939;DHT22;51453;47.738;7.420;2022-11-03T15:03:31;14.20;99.90
64939;DHT22;51453;47.738;7.420;2022-11-03T15:05:57;14.20;99.90
64939;DHT22;51453;47.738;7.420;2022-11-03T15:08:23;14.20;99.90
64939;DHT22;51453;47.738;7.420;2022-11-03T15:10:49;14.20;99.90
64939;DHT22;51453;47.738;7.420;2022-11-03T15:13:15;14.10;99.90
64939;DHT22;51453;47.738;7.420;2022-11-03T15:15:41;14.10;99.90
64939;DHT22;51453;47.738;7.420;2022-11-03T15:18:10;14.00;99.90
64939;DHT22;51453;47.738;7.420;2022-11-03T15:20:36;13.90;99.90
64939;DHT22;51453;47.738;7.420;2022-11-03T15:23:03;13.90;99.90
64939;DHT22;51453;47.738;7.420;2022-11-03T15:25:29;13.90;99.90
64939;DHT22;51453;47.738;7.420;2022-11-03T15:27:55;13.80;99.90
64939;DHT22;51453;47.738;7.420;2022-11-03T15:30:21;13.90;99.90
64939;DHT22;51453;47.738;7.420;2022-11-03T15:32:47;13.80;99.90
64939;DHT22;51453;47.738;7.420;2022-11-03T15:35:13;13.80;99.90
64939;DHT22;51453;47.738;7.420;2022-11-03T15:37:39;13.80;99.90
64939;DHT22;51453;47.738;7.420;2022-11-03T15:40:07;13.80;99.90
64939;DHT22;51453;47.738;7.420;2022-11-03T15:42:34;13.80;99.90
64939;DHT22;51453;47.738;7.420;2022-11-03T15:45:01;13.80;99.90
64939;DHT22;51453;47.738;7.420;2022-11-03T15:47:26;13.70;99.90
64939;DHT22;51453;47.738;7.420;2022-11-03T15:49:52;13.60;99.90
64939;DHT22;51453;47.738;7.420;2022-11-03T15:52:18;13.50;99.90
64939;DHT22;51453;47.738;7.420;2022-11-03T15:54:43;13.40;99.90
64939;DHT22;51453;47.738;7.420;2022-11-03T15:57:09;13.40;99.90
64939;DHT22;51453;47.738;7.420;2022-11-03T15:59:35;13.30;99.90
64939;DHT22;51453;47.738;7.420;2022-11-03T16:02:00;13.30;99.90
64939;DHT22;51453;47.738;7.420;2022-11-03T16:04:26;13.20;99.90
64939;DHT22;51453;47.738;7.420;2022-11-03T16:06:52;13.20;99.90
64939;DHT22;51453;47.738;7.420;2022-11-03T16:09:18;13.20;99.90
64939;DHT22;51453;47.738;7.420;2022-11-03T16:11:43;13.10;99.90
64939;DHT22;51453;47.738;7.420;2022-11-03T16:14:11;13.10;99.90
64939;DHT22;51453;47.738;7.420;2022-11-03T16:16:37;13.00;99.90
64939;DHT22;51453;47.738;7.420;2022-11-03T16:19:03;13.00;99.90
64939;DHT22;51453;47.738;7.420;2022-11-03T16:21:29;13.00;99.90
64939;DHT22;51453;47.738;7.420;2022-11-03T16:23:54;12.90;99.90
64939;DHT22;51453;47.738;7.420;2022-11-03T16:26:20;12.90;99.90
64939;DHT22;51453;47.738;7.420;2022-11-03T16:28:46;12.90;99.90
64939;DHT22;51453;47.738;7.420;2022-11-03T16:31:12;13.00;99.90
64939;DHT22;51453;47.738;7.420;2022-11-03T16:33:37;13.00;99.90
64939;DHT22;51453;47.738;7.420;2022-11-03T16:36:03;12.90;99.90
64939;DHT22;51453;47.738;7.420;2022-11-03T16:38:29;12.90;99.90
64939;DHT22;51453;47.738;7.420;2022-11-03T16:40:55;12.90;99.90
64939;DHT22;51453;47.738;7.420;2022-11-03T16:43:21;12.90;99.90
64939;DHT22;51453;47.738;7.420;2022-11-03T16:45:46;12.90;99.90
64939;DHT22;51453;47.738;7.420;2022-11-03T16:48:12;12.80;99.90
64939;DHT22;51453;47.738;7.420;2022-11-03T16:50:37;12.80;99.90
64939;DHT22;51453;47.738;7.420;2022-11-03T16:53:03;12.80;99.90
64939;DHT22;51453;47.738;7.420;2022-11-03T16:55:29;12.70;99.90
64939;DHT22;51453;47.738;7.420;2022-11-03T16:57:54;12.60;99.90
64939;DHT22;51453;47.738;7.420;2022-11-03T17:00:20;12.50;99.90
64939;DHT22;51453;47.738;7.420;2022-11-03T17:02:46;12.40;99.90
64939;DHT22;51453;47.738;7.420;2022-11-03T17:05:13;12.30;99.90
64939;DHT22;51453;47.738;7.420;2022-11-03T17:07:40;12.10;99.90